createdAt,value
2023-09-01T00:00:14.520Z,98.79
2023-09-01T00:02:41.406Z,97.94
2023-09-01T00:05:08.507Z,98.11
2023-09-01T00:07:35.161Z,98.35
2023-09-01T00:10:01.750Z,98.91
2023-09-01T00:12:28.364Z,97.30
2023-09-01T00:14:54.973Z,98.00
2023-09-01T00:17:21.618Z,98.06
2023-09-01T00:19:48.250Z,98.13
2023-09-01T00:22:14.830Z,98.30
2023-09-01T00:24:41.409Z,98.15
2023-09-01T00:27:08.001Z,97.59
2023-09-01T00:29:34.659Z,97.16
2023-09-01T00:32:01.831Z,97.27
2023-09-01T00:34:30.755Z,97.33
2023-09-01T00:36:57.552Z,97.40
2023-09-01T00:39:24.203Z,97.26
2023-09-01T00:41:50.746Z,97.60
2023-09-01T00:44:17.371Z,97.33
2023-09-01T00:46:44.003Z,97.39
2023-09-01T00:49:10.732Z,97.67
2023-09-01T00:51:37.792Z,96.81
2023-09-01T00:54:04.872Z,96.78
2023-09-01T00:56:31.479Z,97.61
2023-09-01T00:58:58.099Z,97.04
2023-09-01T01:01:24.731Z,96.85
2023-09-01T01:03:51.535Z,96.74
2023-09-01T01:06:27.713Z,96.73
2023-09-01T01:09:15.097Z,95.88
2023-09-01T01:11:54.659Z,95.96
2023-09-01T01:14:38.646Z,97.14
2023-09-01T01:17:05.238Z,97.35
2023-09-01T01:19:40.845Z,97.92
2023-09-01T01:22:07.419Z,97.60
2023-09-01T01:24:34.099Z,97.47
2023-09-01T01:27:00.723Z,97.06
2023-09-01T01:29:27.318Z,97.03
2023-09-01T01:31:54.780Z,97.59
2023-09-01T01:34:28.669Z,97.74
2023-09-01T01:37:04.285Z,97.16
2023-09-01T01:39:30.901Z,97.97
2023-09-01T01:42:10.564Z,97.31
2023-09-01T01:44:39.310Z,97.91
2023-09-01T01:47:06.028Z,98.10
2023-09-01T01:49:32.651Z,97.93
2023-09-01T01:52:00.674Z,97.30
2023-09-01T01:54:27.407Z,97.35
2023-09-01T01:56:54.007Z,97.46
2023-09-01T01:59:20.594Z,98.03
2023-09-01T02:01:47.216Z,97.75
2023-09-01T02:04:13.832Z,97.17
2023-09-01T02:06:40.445Z,96.86
2023-09-01T02:09:07.070Z,96.99
2023-09-01T02:11:33.697Z,97.12
2023-09-01T02:14:00.262Z,97.73
2023-09-01T02:16:26.924Z,96.84
2023-09-01T02:18:53.526Z,97.77
2023-09-01T02:21:20.822Z,96.92
2023-09-01T02:23:48.176Z,96.98
2023-09-01T02:26:19.065Z,97.72
2023-09-01T02:28:45.778Z,97.14
2023-09-01T02:31:12.481Z,96.90
2023-09-01T02:33:39.067Z,97.36
2023-09-01T02:36:27.618Z,97.30
2023-09-01T02:38:54.290Z,97.13
2023-09-01T02:41:21.009Z,98.02
2023-09-01T02:43:47.591Z,97.59
2023-09-01T02:46:14.349Z,97.71
2023-09-01T02:48:41.038Z,97.55
2023-09-01T02:51:07.686Z,97.73
2023-09-01T02:53:34.825Z,97.43
2023-09-01T02:56:01.780Z,97.80
2023-09-01T02:58:28.355Z,98.20
2023-09-01T03:00:54.971Z,98.42
2023-09-01T03:03:22.325Z,98.52
2023-09-01T03:05:49.186Z,98.40
2023-09-01T03:08:16.199Z,98.09
2023-09-01T03:10:42.840Z,98.35
2023-09-01T03:13:09.487Z,97.83
2023-09-01T03:15:36.319Z,98.73
2023-09-01T03:18:03.026Z,98.49
2023-09-01T03:20:29.787Z,98.04
2023-09-01T03:22:56.421Z,98.64
2023-09-01T03:25:23.072Z,98.10
2023-09-01T03:27:49.680Z,98.98
2023-09-01T03:30:16.306Z,98.76
2023-09-01T03:32:42.952Z,98.62
2023-09-01T03:35:09.811Z,98.97
2023-09-01T03:37:36.946Z,98.99
2023-09-01T03:40:04.010Z,98.54
2023-09-01T03:42:30.663Z,99.01
2023-09-01T03:44:57.268Z,99.27
2023-09-01T03:47:23.881Z,99.56
2023-09-01T03:49:50.512Z,99.39
2023-09-01T03:52:17.154Z,98.95
2023-09-01T03:54:43.721Z,99.56
2023-09-01T03:57:10.289Z,98.94
2023-09-01T03:59:36.919Z,99.39
2023-09-01T04:02:03.611Z,98.79
2023-09-01T04:04:30.252Z,98.82
2023-09-01T04:06:56.891Z,98.68
2023-09-01T04:09:23.985Z,98.62
2023-09-01T04:11:50.588Z,99.31
2023-09-01T04:14:17.171Z,99.14
2023-09-01T04:16:43.733Z,99.09
2023-09-01T04:19:10.680Z,99.32
2023-09-01T04:21:37.275Z,99.46
2023-09-01T04:24:04.017Z,99.86
2023-09-01T04:26:30.634Z,99.75
2023-09-01T04:28:57.279Z,99.35
2023-09-01T04:31:28.136Z,98.40
2023-09-01T04:33:55.561Z,99.09
2023-09-01T04:36:27.484Z,98.70
2023-09-01T04:39:00.222Z,99.04
2023-09-01T04:41:26.867Z,99.39
2023-09-01T04:43:53.440Z,99.02
2023-09-01T04:46:20.098Z,99.09
2023-09-01T04:48:46.753Z,98.82
2023-09-01T04:51:13.403Z,99.21
2023-09-01T04:53:40.041Z,99.39
2023-09-01T04:56:06.658Z,99.50
2023-09-01T04:58:33.369Z,99.40
2023-09-01T05:01:00.072Z,99.52
2023-09-01T05:03:26.690Z,99.28
2023-09-01T05:05:53.331Z,99.06
2023-09-01T05:08:19.926Z,98.94
2023-09-01T05:10:46.462Z,98.98
2023-09-01T05:13:13.078Z,98.96
2023-09-01T05:15:39.702Z,98.37
2023-09-01T05:18:06.326Z,98.59
2023-09-01T05:20:33.016Z,98.34
2023-09-01T05:22:59.679Z,97.42
2023-09-01T05:25:26.350Z,98.04
2023-09-01T05:27:53.746Z,98.02
2023-09-01T05:30:20.419Z,97.67
2023-09-01T05:32:47.131Z,97.81
2023-09-01T05:35:13.801Z,96.64
2023-09-01T05:37:40.443Z,96.63
2023-09-01T05:40:07.788Z,95.79
2023-09-01T05:42:34.365Z,96.03
2023-09-01T05:45:00.995Z,95.43
2023-09-01T05:47:27.614Z,96.09
2023-09-01T05:49:54.222Z,94.96
2023-09-01T05:52:20.839Z,95.94
2023-09-01T05:54:47.465Z,95.72
2023-09-01T05:57:14.075Z,95.75
2023-09-01T05:59:40.693Z,95.63
2023-09-01T06:02:08.439Z,95.43
2023-09-01T06:04:35.084Z,94.83
2023-09-01T06:07:01.731Z,95.13
2023-09-01T06:09:28.318Z,95.07
2023-09-01T06:11:54.952Z,94.95
2023-09-01T06:14:21.551Z,94.55
2023-09-01T06:16:48.223Z,94.06
2023-09-01T06:19:14.856Z,94.17
2023-09-01T06:21:41.477Z,95.16
2023-09-01T06:24:08.252Z,94.60
2023-09-01T06:26:34.878Z,94.05
2023-09-01T06:29:01.460Z,94.16
2023-09-01T06:31:28.093Z,94.14
2023-09-01T06:33:54.671Z,94.11
2023-09-01T06:36:21.308Z,93.92
2023-09-01T06:38:47.873Z,93.52
2023-09-01T06:41:14.458Z,93.48
2023-09-01T06:43:41.062Z,93.40
2023-09-01T06:46:07.713Z,94.26
2023-09-01T06:48:34.344Z,92.69
2023-09-01T06:51:01.022Z,92.53
2023-09-01T06:53:27.922Z,92.76
2023-09-01T06:55:54.494Z,92.00
2023-09-01T06:58:21.208Z,91.10
2023-09-01T07:00:47.893Z,91.96
2023-09-01T07:03:14.514Z,91.82
2023-09-01T07:05:41.153Z,91.83
2023-09-01T07:08:12.185Z,91.42
2023-09-01T07:10:39.034Z,91.18
2023-09-01T07:13:08.046Z,91.00
2023-09-01T07:15:34.630Z,91.16
2023-09-01T07:18:01.335Z,91.31
2023-09-01T07:20:28.056Z,91.92
2023-09-01T07:22:54.738Z,91.58
2023-09-01T07:25:21.365Z,90.94
2023-09-01T07:27:47.959Z,91.46
2023-09-01T07:30:14.814Z,90.81
2023-09-01T07:32:41.748Z,90.03
2023-09-01T07:35:08.366Z,90.69
2023-09-01T07:37:34.948Z,90.81
2023-09-01T07:40:01.617Z,90.49
2023-09-01T07:42:28.277Z,90.40
2023-09-01T07:44:54.855Z,90.55
2023-09-01T07:47:21.452Z,89.95
2023-09-01T07:49:48.090Z,89.68
2023-09-01T07:52:14.676Z,89.47
2023-09-01T07:54:41.365Z,88.61
2023-09-01T07:57:07.964Z,88.19
2023-09-01T07:59:34.580Z,87.96
2023-09-01T08:02:01.241Z,87.28
2023-09-01T08:04:27.857Z,86.56
2023-09-01T08:06:54.456Z,86.43
2023-09-01T08:09:21.066Z,86.36
2023-09-01T08:11:47.658Z,86.71
2023-09-01T08:14:14.296Z,86.63
2023-09-01T08:16:40.970Z,86.09
2023-09-01T08:19:07.586Z,85.26
2023-09-01T08:21:34.167Z,85.71
2023-09-01T08:24:00.930Z,84.99
2023-09-01T08:26:27.586Z,84.27
2023-09-01T08:28:54.213Z,84.34
2023-09-01T08:31:20.807Z,84.16
2023-09-01T08:33:47.497Z,84.27
2023-09-01T08:36:14.093Z,83.69
2023-09-01T08:38:43.650Z,83.77
2023-09-01T08:41:10.668Z,82.23
2023-09-01T08:43:38.443Z,82.27
2023-09-01T08:46:14.503Z,81.71
2023-09-01T08:48:42.066Z,81.37
2023-09-01T08:51:08.725Z,81.41
2023-09-01T08:53:35.897Z,81.36
2023-09-01T08:56:02.531Z,80.33
2023-09-01T08:58:29.157Z,79.92
2023-09-01T09:00:55.981Z,79.63
2023-09-01T09:03:22.676Z,79.73
2023-09-01T09:05:49.336Z,79.82
2023-09-01T09:08:16.161Z,79.84
2023-09-01T09:10:44.554Z,79.79
2023-09-01T09:13:26.951Z,78.42
2023-09-01T09:16:11.684Z,77.92
2023-09-01T09:18:40.416Z,79.31
2023-09-01T09:21:23.747Z,78.67
2023-09-01T09:23:50.379Z,78.17
2023-09-01T09:26:16.928Z,77.85
2023-09-01T09:28:43.566Z,78.29
2023-09-01T09:31:10.175Z,76.47
2023-09-01T09:33:36.748Z,76.50
2023-09-01T09:36:03.500Z,76.01
2023-09-01T09:38:45.487Z,75.71
2023-09-01T09:41:12.459Z,75.21
2023-09-01T09:43:49.533Z,75.14
2023-09-01T09:46:16.429Z,73.87
2023-09-01T09:48:43.307Z,72.25
2023-09-01T09:51:10.090Z,73.21
2023-09-01T09:53:39.087Z,72.71
2023-09-01T09:56:22.977Z,72.77
2023-09-01T09:58:49.576Z,71.77
2023-09-01T10:01:20.131Z,71.20
2023-09-01T10:03:47.755Z,70.82
2023-09-01T10:06:15.794Z,69.71
2023-09-01T10:08:42.401Z,69.59
2023-09-01T10:11:10.497Z,69.50
2023-09-01T10:13:37.443Z,69.41
2023-09-01T10:16:04.254Z,69.25
2023-09-01T10:18:30.929Z,69.14
2023-09-01T10:20:57.511Z,68.57
2023-09-01T10:23:24.117Z,68.93
2023-09-01T10:26:12.976Z,69.06
2023-09-01T10:29:02.388Z,68.01
2023-09-01T10:31:29.198Z,67.80
2023-09-01T10:34:11.962Z,67.86
2023-09-01T10:36:38.588Z,67.74
2023-09-01T10:39:17.325Z,68.03
2023-09-01T10:41:51.304Z,66.81
2023-09-01T10:44:17.958Z,67.18
2023-09-01T10:46:44.600Z,67.40
2023-09-01T10:49:11.256Z,67.19
2023-09-01T10:51:37.873Z,67.35
2023-09-01T10:54:16.695Z,67.28
2023-09-01T10:56:56.252Z,68.87
2023-09-01T10:59:35.646Z,68.22
2023-09-01T11:02:21.478Z,68.23
2023-09-01T11:04:48.200Z,68.78
2023-09-01T11:07:14.843Z,69.11
2023-09-01T11:09:41.338Z,68.97
2023-09-01T11:12:08.575Z,67.91
2023-09-01T11:14:39.246Z,68.91
2023-09-01T11:17:06.150Z,68.18
2023-09-01T11:19:51.228Z,67.71
2023-09-01T11:22:17.824Z,67.60
2023-09-01T11:24:47.439Z,68.08
2023-09-01T11:27:14.178Z,68.47
2023-09-01T11:29:40.815Z,67.43
2023-09-01T11:32:08.585Z,66.69
2023-09-01T11:34:38.931Z,65.89
2023-09-01T11:37:05.574Z,64.80
2023-09-01T11:39:32.234Z,64.26
2023-09-01T11:42:00.294Z,64.62
2023-09-01T11:44:26.884Z,64.65
2023-09-01T11:46:53.616Z,62.77
2023-09-01T11:49:20.211Z,62.48
2023-09-01T11:51:46.817Z,61.48
2023-09-01T11:54:13.474Z,61.52
2023-09-01T11:56:40.049Z,61.10
2023-09-01T11:59:06.992Z,60.87
2023-09-01T12:01:37.869Z,61.92
2023-09-01T12:04:09.008Z,61.60
2023-09-01T12:06:39.639Z,60.50
2023-09-01T12:09:15.921Z,59.43
2023-09-01T12:11:55.510Z,59.14
2023-09-01T12:14:23.956Z,57.90
2023-09-01T12:16:52.367Z,58.46
2023-09-01T12:19:23.974Z,58.36
2023-09-01T12:21:51.327Z,58.73
2023-09-01T12:24:17.935Z,58.29
2023-09-01T12:26:44.692Z,58.26
2023-09-01T12:29:11.369Z,57.77
2023-09-01T12:31:38.129Z,56.30
2023-09-01T12:34:04.885Z,57.33
2023-09-01T12:36:31.729Z,57.07
2023-09-01T12:38:58.326Z,54.84
2023-09-01T12:41:24.998Z,55.42
2023-09-01T12:43:51.711Z,55.98
2023-09-01T12:46:18.470Z,56.44
2023-09-01T12:48:45.167Z,55.37
2023-09-01T12:51:12.766Z,55.15
2023-09-01T12:53:40.412Z,55.96
2023-09-01T12:56:07.087Z,55.64
2023-09-01T13:01:03.521Z,56.87
2023-09-01T13:03:30.334Z,57.24
2023-09-01T13:05:57.045Z,56.71
2023-09-01T13:08:23.706Z,55.05
2023-09-01T13:10:50.335Z,53.94
2023-09-01T13:13:17.399Z,53.39
2023-09-01T13:15:50.299Z,52.69
2023-09-01T13:18:17.377Z,53.77
2023-09-01T13:20:44.086Z,53.85
2023-09-01T13:23:10.751Z,53.57
2023-09-01T13:25:37.443Z,54.24
2023-09-01T13:28:04.492Z,53.81
2023-09-01T13:30:31.264Z,52.86
2023-09-01T13:32:57.994Z,51.02
2023-09-01T13:35:24.764Z,49.61
2023-09-01T13:37:51.485Z,50.15
2023-09-01T13:40:18.112Z,47.41
2023-09-01T13:42:44.854Z,47.00
2023-09-01T13:45:11.651Z,45.17
2023-09-01T13:47:38.364Z,43.75
2023-09-01T13:50:05.700Z,36.72
2023-09-01T13:52:32.505Z,39.48
2023-09-01T13:54:59.214Z,40.36
2023-09-01T13:57:25.948Z,40.75
2023-09-01T13:59:52.786Z,39.38
2023-09-01T14:02:20.988Z,38.58
2023-09-01T14:04:51.023Z,36.26
2023-09-01T14:07:18.139Z,36.43
2023-09-01T14:09:45.008Z,36.70
2023-09-01T14:12:11.676Z,39.98
2023-09-01T14:14:38.380Z,42.71
2023-09-01T14:17:05.155Z,44.39
2023-09-01T14:19:31.962Z,45.16
2023-09-01T14:21:58.597Z,47.03
2023-09-01T14:24:25.307Z,48.38
2023-09-01T14:26:51.994Z,48.41
2023-09-01T14:29:19.106Z,49.18
2023-09-01T14:31:45.791Z,50.01
2023-09-01T14:34:12.521Z,50.95
2023-09-01T14:36:39.140Z,51.21
2023-09-01T14:39:05.833Z,51.76
2023-09-01T14:41:32.551Z,51.56
2023-09-01T14:43:59.198Z,52.69
2023-09-01T14:46:25.963Z,51.53
2023-09-01T14:48:52.581Z,50.02
2023-09-01T14:51:19.164Z,50.10
2023-09-01T14:53:48.894Z,50.34
2023-09-01T14:56:16.109Z,50.21
2023-09-01T14:58:42.822Z,50.83
2023-09-01T15:01:09.442Z,50.68
2023-09-01T15:03:36.325Z,50.82
2023-09-01T15:06:03.180Z,51.07
2023-09-01T15:08:29.855Z,51.74
2023-09-01T15:11:01.494Z,48.74
2023-09-01T15:13:28.124Z,50.44
2023-09-01T15:15:54.788Z,52.09
2023-09-01T15:18:21.487Z,51.05
2023-09-01T15:20:48.092Z,50.69
2023-09-01T15:23:15.072Z,53.11
2023-09-01T15:25:41.848Z,53.51
2023-09-01T15:28:08.466Z,53.02
2023-09-01T15:30:35.083Z,52.73
2023-09-01T15:33:01.864Z,53.06
2023-09-01T15:35:32.414Z,52.75
2023-09-01T15:38:01.528Z,53.39
2023-09-01T15:40:28.243Z,54.15
2023-09-01T15:42:56.741Z,53.21
2023-09-01T15:45:23.818Z,53.52
2023-09-01T15:47:50.985Z,53.89
2023-09-01T15:50:20.519Z,55.25
2023-09-01T15:52:51.674Z,55.24
2023-09-01T15:55:18.323Z,53.95
2023-09-01T15:57:44.918Z,52.32
2023-09-01T16:00:11.918Z,52.08
2023-09-01T16:02:38.593Z,53.27
2023-09-01T16:05:05.269Z,55.14
2023-09-01T16:07:31.869Z,52.13
2023-09-01T16:09:58.548Z,52.75
2023-09-01T16:12:25.137Z,51.57
2023-09-01T16:14:51.749Z,51.47
2023-09-01T16:17:18.343Z,52.69
2023-09-01T16:19:44.931Z,53.16
2023-09-01T16:22:11.596Z,53.42
2023-09-01T16:24:38.240Z,53.75
2023-09-01T16:27:05.024Z,53.91
2023-09-01T16:29:31.559Z,54.36
2023-09-01T16:31:58.089Z,55.22
2023-09-01T16:34:24.645Z,55.95
2023-09-01T16:36:51.181Z,53.26
2023-09-01T16:39:17.752Z,54.82
2023-09-01T16:41:44.273Z,53.67
2023-09-01T16:44:10.925Z,52.59
2023-09-01T16:46:37.481Z,52.81
2023-09-01T16:49:04.266Z,53.54
2023-09-01T16:51:30.777Z,53.82
2023-09-01T16:53:57.374Z,54.63
2023-09-01T16:56:23.960Z,55.93
2023-09-01T16:58:50.607Z,56.53
2023-09-01T17:01:17.265Z,57.39
2023-09-01T17:03:43.947Z,57.78
2023-09-01T17:06:10.556Z,58.56
2023-09-01T17:08:44.377Z,59.04
2023-09-01T17:11:11.161Z,59.40
2023-09-01T17:13:37.775Z,59.92
2023-09-01T17:16:04.732Z,60.98
2023-09-01T17:18:31.382Z,61.19
2023-09-01T17:20:58.432Z,61.70
2023-09-01T17:23:28.630Z,62.29
2023-09-01T17:25:55.539Z,62.86
2023-09-01T17:28:22.203Z,62.90
2023-09-01T17:30:48.893Z,63.34
2023-09-01T17:33:15.772Z,64.26
2023-09-01T17:35:42.669Z,64.60
2023-09-01T17:38:09.280Z,64.96
2023-09-01T17:40:36.398Z,65.71
2023-09-01T17:43:04.184Z,66.36
2023-09-01T17:45:30.750Z,66.67
2023-09-01T17:47:57.388Z,67.32
2023-09-01T17:50:24.009Z,67.70
2023-09-01T17:52:51.565Z,67.94
2023-09-01T17:55:19.632Z,68.58
2023-09-01T17:57:46.239Z,69.46
2023-09-01T18:00:13.247Z,69.78
2023-09-01T18:02:39.912Z,70.53
2023-09-01T18:05:08.076Z,70.87
2023-09-01T18:07:34.871Z,70.86
2023-09-01T18:10:01.919Z,71.20
2023-09-01T18:12:28.536Z,71.60
2023-09-01T18:14:55.198Z,71.70
2023-09-01T18:17:22.005Z,71.92
2023-09-01T18:19:48.644Z,72.44
2023-09-01T18:22:15.284Z,72.60
2023-09-01T18:24:41.899Z,72.77
2023-09-01T18:27:27.833Z,72.99
2023-09-01T18:29:54.792Z,73.56
2023-09-01T18:32:21.344Z,74.02
2023-09-01T18:34:48.005Z,74.14
2023-09-01T18:37:15.791Z,74.65
2023-09-01T18:39:42.381Z,74.59
2023-09-01T18:42:37.329Z,75.16
2023-09-01T18:45:05.718Z,75.31
2023-09-01T18:47:35.789Z,75.39
2023-09-01T18:50:02.456Z,75.65
2023-09-01T18:52:29.083Z,76.07
2023-09-01T18:54:55.769Z,75.97
2023-09-01T18:57:22.346Z,76.24
2023-09-01T18:59:49.056Z,76.46
2023-09-01T19:02:41.569Z,76.40
2023-09-01T19:05:17.616Z,76.77
2023-09-01T19:07:44.245Z,77.26
2023-09-01T19:10:20.945Z,77.19
2023-09-01T19:12:49.558Z,77.83
2023-09-01T19:15:16.434Z,77.76
2023-09-01T19:17:43.179Z,77.96
2023-09-01T19:20:33.110Z,78.28
2023-09-01T19:23:29.855Z,79.24
2023-09-01T19:25:57.361Z,79.02
2023-09-01T19:28:37.096Z,79.65
2023-09-01T19:31:06.717Z,80.16
2023-09-01T19:33:33.380Z,80.35
2023-09-01T19:36:00.186Z,80.06
2023-09-01T19:38:28.081Z,81.16
2023-09-01T19:40:55.801Z,80.96
2023-09-01T19:43:22.673Z,81.91
2023-09-01T19:45:50.090Z,81.72
2023-09-01T19:48:16.635Z,82.35
2023-09-01T19:50:43.302Z,82.73
2023-09-01T19:53:25.852Z,83.29
2023-09-01T19:55:52.897Z,83.07
2023-09-01T19:58:37.659Z,83.25
2023-09-01T20:01:04.746Z,84.17
2023-09-01T20:03:31.362Z,84.22
2023-09-01T20:05:57.985Z,83.86
2023-09-01T20:08:24.853Z,84.67
2023-09-01T20:10:51.462Z,84.59
2023-09-01T20:13:18.378Z,85.09
2023-09-01T20:15:47.566Z,84.76
2023-09-01T20:18:18.158Z,85.69
2023-09-01T20:20:48.162Z,85.86
2023-09-01T20:23:15.298Z,86.35
2023-09-01T20:25:43.104Z,86.11
2023-09-01T20:28:09.733Z,86.58
2023-09-01T20:30:36.342Z,87.07
2023-09-01T20:33:03.155Z,86.71
2023-09-01T20:35:29.869Z,87.52
2023-09-01T20:37:56.605Z,87.60
2023-09-01T20:40:23.223Z,87.50
2023-09-01T20:42:49.827Z,88.37
2023-09-01T20:45:16.428Z,88.58
2023-09-01T20:47:43.043Z,88.74
2023-09-01T20:50:09.936Z,88.29
2023-09-01T20:52:37.959Z,88.72
2023-09-01T20:55:05.822Z,89.57
2023-09-01T20:57:40.071Z,89.71
2023-09-01T21:00:08.546Z,89.30
2023-09-01T21:02:35.639Z,89.84
2023-09-01T21:05:02.698Z,89.87
2023-09-01T21:07:29.312Z,90.05
2023-09-01T21:09:55.956Z,90.22
2023-09-01T21:12:22.590Z,89.80
2023-09-01T21:14:49.576Z,90.94
2023-09-01T21:17:16.218Z,90.48
2023-09-01T21:19:42.832Z,90.91
2023-09-01T21:22:09.415Z,90.99
2023-09-01T21:24:36.021Z,91.17
2023-09-01T21:27:02.613Z,90.59
2023-09-01T21:29:29.197Z,91.14
2023-09-01T21:31:55.815Z,91.09
2023-09-01T21:34:22.408Z,91.34
2023-09-01T21:36:48.997Z,92.22
2023-09-01T21:39:15.658Z,92.15
2023-09-01T21:41:42.198Z,91.71
2023-09-01T21:44:08.845Z,91.96
2023-09-01T21:46:35.472Z,92.07
2023-09-01T21:49:02.042Z,92.75
2023-09-01T21:51:28.671Z,92.54
2023-09-01T21:53:55.311Z,91.71
2023-09-01T21:56:21.975Z,92.11
2023-09-01T21:58:49.131Z,92.35
2023-09-01T22:01:16.112Z,92.46
2023-09-01T22:03:44.491Z,92.96
2023-09-01T22:06:11.077Z,92.36
2023-09-01T22:08:37.717Z,92.61
2023-09-01T22:11:04.378Z,93.40
2023-09-01T22:13:31.075Z,93.26
2023-09-01T22:15:57.712Z,93.68
2023-09-01T22:18:24.552Z,93.32
2023-09-01T22:20:51.196Z,93.24
2023-09-01T22:23:18.101Z,93.29
2023-09-01T22:25:44.912Z,93.53
2023-09-01T22:28:11.507Z,93.35
2023-09-01T22:30:38.109Z,93.33
2023-09-01T22:33:05.282Z,93.45
2023-09-01T22:35:31.953Z,93.00
2023-09-01T22:38:10.839Z,93.30
2023-09-01T22:40:38.917Z,93.58
2023-09-01T22:43:05.505Z,93.78
2023-09-01T22:45:32.035Z,94.39
2023-09-01T22:47:58.656Z,94.18
2023-09-01T22:50:25.359Z,93.84
2023-09-01T22:52:51.969Z,93.44
2023-09-01T22:55:18.581Z,94.38
2023-09-01T22:57:45.229Z,94.25
2023-09-01T23:00:12.278Z,94.13
2023-09-01T23:02:38.915Z,93.69
2023-09-01T23:05:06.103Z,93.46
2023-09-01T23:07:32.671Z,93.45
2023-09-01T23:09:59.298Z,93.73
2023-09-01T23:12:25.877Z,94.01
2023-09-01T23:14:52.481Z,93.47
2023-09-01T23:17:19.113Z,94.36
2023-09-01T23:19:45.800Z,94.09
2023-09-01T23:22:12.433Z,93.72
2023-09-01T23:24:39.074Z,94.52
2023-09-01T23:27:05.870Z,94.18
2023-09-01T23:29:32.465Z,94.29
2023-09-01T23:32:05.769Z,93.70
2023-09-01T23:34:33.602Z,94.14
2023-09-01T23:37:00.217Z,93.45
2023-09-01T23:39:26.923Z,93.78
2023-09-01T23:41:53.509Z,93.54
2023-09-01T23:44:20.095Z,93.56
2023-09-01T23:46:46.707Z,93.89
2023-09-01T23:49:13.303Z,94.16
2023-09-01T23:51:39.931Z,93.94
2023-09-01T23:54:06.678Z,93.61
2023-09-01T23:56:33.316Z,94.05
2023-09-01T23:58:59.922Z,93.94
